Time;durP1;ratioP1;P1;durP2;ratioP2;P2;SDS_P1;SDS_P2;PMS_P1;PMS_P2;Temp;Humidity;BMP_temperature;BMP_pressure;BME280_temperature;BME280_humidity;BME280_pressure;Samples;Min_cycle;Max_cycle;Signal;HPM_P1;HPM_P2
2022/03/09 00:01:02;;;;;;;1999.90;999.90;;;;;;;2.91;61.31;102068.78;15362246;28;20043;-62
2022/03/09 00:08:34;;;;;;;;;;;;;;;2.82;61.54;102064.78;15371732;28;20161;-60
2022/03/09 00:16:07;;;;;;;1999.90;999.90;;;;;;;2.76;61.56;102063.00;15358956;28;20013;-62
2022/03/09 00:23:43;;;;;;;1999.90;999.90;;;;;;;2.73;61.53;102063.50;15368309;28;20078;-62
2022/03/09 00:31:17;;;;;;;1999.90;999.90;;;;;;;2.58;62.32;102064.06;15371721;28;20504;-60
2022/03/09 00:38:50;;;;;;;1999.90;999.90;;;;;;;2.47;62.80;102068.53;15370505;28;20055;-59
2022/03/09 00:46:23;;;;;;;1999.90;999.90;;;;;;;2.62;62.20;102070.75;15393631;23;20050;-63
2022/03/09 00:53:55;;;;;;;1999.90;999.90;;;;;;;2.53;61.94;102069.47;15493908;28;20057;-63
2022/03/09 01:01:29;;;;;;;1999.90;999.90;;;;;;;2.49;61.85;102057.25;15494973;28;20574;-63
2022/03/09 01:09:02;;;;;;;1999.90;999.90;;;;;;;2.38;62.12;102066.41;15508603;28;20042;-63
2022/03/09 01:16:37;;;;;;;1999.90;999.90;;;;;;;2.27;62.04;102055.19;15510230;28;20490;-63
2022/03/09 01:24:11;;;;;;;1999.90;999.90;;;;;;;2.17;62.78;102056.91;15494861;28;20050;-63
2022/03/09 01:31:44;;;;;;;1999.90;999.90;;;;;;;2.01;63.39;102044.75;15493515;28;20052;-61
2022/03/09 01:39:18;;;;;;;1999.90;999.90;;;;;;;2.04;62.60;102049.75;15493004;28;20058;-62
2022/03/09 01:46:53;;;;;;;1999.90;999.90;;;;;;;2.01;62.38;102047.50;15491786;28;20069;-60
2022/03/09 01:54:26;;;;;;;1999.90;999.90;;;;;;;1.88;62.73;102047.78;15494652;28;20049;-63
2022/03/09 02:02:03;;;;;;;1999.90;999.90;;;;;;;1.79;63.50;102044.56;15490416;28;20042;-61
2022/03/09 02:09:44;;;;;;;1999.90;999.90;;;;;;;1.73;63.49;102035.34;15481483;28;20042;-63
2022/03/09 02:17:19;;;;;;;1999.90;999.90;;;;;;;1.77;63.51;102037.63;15476035;28;20065;-62
2022/03/09 02:24:58;;;;;;;1999.90;999.90;;;;;;;1.71;63.40;102033.94;15491176;28;20073;-62
2022/03/09 02:32:30;;;;;;;1999.90;999.90;;;;;;;1.61;63.90;102040.03;15489768;28;20053;-62
2022/03/09 02:40:05;;;;;;;1999.90;999.90;;;;;;;1.59;63.65;102038.63;15490946;28;20129;-62
2022/03/09 02:47:39;;;;;;;1999.90;999.90;;;;;;;1.47;64.77;102035.03;15454427;28;20077;-63
2022/03/09 02:55:14;;;;;;;1999.90;999.90;;;;;;;1.55;63.71;102037.41;15489980;28;20058;-63
2022/03/09 03:02:46;;;;;;;1999.90;999.90;;;;;;;1.28;64.97;102040.66;15489194;28;20482;-61
2022/03/09 03:10:20;;;;;;;1999.90;999.90;;;;;;;1.36;63.87;102048.56;15488675;28;20526;-61
2022/03/09 03:17:52;;;;;;;;;;;;;;;1.33;64.26;102035.25;15471153;28;20046;-63
2022/03/09 03:25:26;;;;;;;1999.90;999.90;;;;;;;1.29;64.58;102044.25;15487602;28;19926;-62
2022/03/09 03:32:58;;;;;;;;;;;;;;;1.20;65.05;102048.44;15488478;28;20077;-63
2022/03/09 03:40:32;;;;;;;1999.90;999.90;;;;;;;1.05;65.29;102052.50;15485764;28;19921;-62
2022/03/09 03:48:04;;;;;;;;;;;;;;;1.08;64.98;102057.50;15487128;28;20050;-63
2022/03/09 03:55:37;;;;;;;1999.90;999.90;;;;;;;1.06;65.05;102059.66;15486018;28;20153;-64
2022/03/09 04:03:10;;;;;;;1999.90;999.90;;;;;;;1.06;64.83;102069.81;15487581;28;20499;-63
2022/03/09 04:10:43;;;;;;;1999.90;999.90;;;;;;;0.89;65.27;102069.66;15485802;28;20126;-62
2022/03/09 04:18:18;;;;;;;1999.90;999.90;;;;;;;0.79;65.06;102077.63;15480844;28;20472;-63
2022/03/09 04:25:53;;;;;;;1999.90;999.90;;;;;;;0.78;65.60;102070.47;15486898;28;20081;-60
2022/03/09 04:33:25;;;;;;;;;;;;;;;0.86;65.73;102081.13;15489491;28;20058;-62
2022/03/09 04:40:58;;;;;;;1999.90;999.90;;;;;;;0.81;65.40;102083.72;15487080;28;19944;-62
2022/03/09 04:48:30;;;;;;;;;;;;;;;0.85;64.71;102083.03;15502055;28;20129;-62
2022/03/09 04:56:04;;;;;;;1999.90;999.90;;;;;;;0.65;65.62;102074.25;15506163;28;20005;-62
2022/03/09 05:03:37;;;;;;;1999.90;999.90;;;;;;;0.50;65.39;102085.66;15501230;28;20046;-62
2022/03/09 05:11:11;;;;;;;1999.90;999.90;;;;;;;0.47;65.93;102077.88;15520825;28;20439;-62
2022/03/09 05:18:42;;;;;;;;;;;;;;;0.55;65.34;102072.06;15504437;28;20310;-62
2022/03/09 05:26:16;;;;;;;1999.90;999.90;;;;;;;0.50;65.51;102079.31;15495642;28;20010;-61
2022/03/09 05:33:48;;;;;;;;;;;;;;;0.55;65.27;102080.31;15494591;28;20125;-62
2022/03/09 05:41:22;;;;;;;1999.90;999.90;;;;;;;0.53;64.80;102089.88;15473728;28;19921;-62
2022/03/09 05:49:13;;;;;;;1999.90;999.90;;;;;;;0.41;64.94;102092.53;15491778;28;20050;-62
2022/03/09 05:56:47;;;;;;;1999.90;999.90;;;;;;;0.52;65.42;102102.75;15493288;28;20113;-60
2022/03/09 06:04:19;;;;;;;1999.90;999.90;;;;;;;0.54;65.35;102106.13;15480425;28;20046;-63
2022/03/09 06:11:53;;;;;;;1999.90;999.90;;;;;;;0.67;65.29;102120.72;15494214;28;20054;-62
2022/03/09 06:19:25;;;;;;;;;;;;;;;0.95;65.03;102128.38;15475172;28;20414;-62
2022/03/09 06:26:59;;;;;;;1999.90;999.90;;;;;;;0.99;65.11;102140.56;15492194;28;20334;-61
2022/03/09 06:34:31;;;;;;;1999.90;999.90;;;;;;;1.09;65.53;102130.66;15491065;28;20042;-62
2022/03/09 06:42:05;;;;;;;1999.90;999.90;;;;;;;1.44;65.46;102136.22;15490348;28;20049;-62
2022/03/09 06:49:37;;;;;;;1999.90;999.90;;;;;;;1.85;64.51;102141.84;15466859;23;20058;-61
2022/03/09 06:57:11;;;;;;;1999.90;999.90;;;;;;;2.33;63.35;102135.19;15418771;28;20039;-61
2022/03/09 07:04:46;;;;;;;1999.90;999.90;;;;;;;3.88;60.64;102158.69;15419570;28;20372;-61
2022/03/09 07:12:19;;;;;;;1999.90;999.90;;;;;;;6.60;53.61;102162.69;15432347;28;20049;-60
2022/03/09 07:19:52;;;;;;;1999.90;999.90;;;;;;;8.26;48.57;102171.41;15418534;28;20086;-59
2022/03/09 07:27:25;;;;;;;1999.90;999.90;;;;;;;9.03;47.79;102162.75;15416119;28;20161;-58
2022/03/09 07:34:57;;;;;;;1999.90;999.90;;;;;;;9.69;46.50;102165.03;15417857;28;20055;-58
2022/03/09 07:42:30;;;;;;;1999.90;999.90;;;;;;;10.18;46.71;102175.19;15417116;28;20047;-60
2022/03/09 07:50:03;;;;;;;1999.90;999.90;;;;;;;10.63;46.84;102182.25;15417551;28;20095;-61
2022/03/09 07:57:37;;;;;;;1999.90;999.90;;;;;;;11.57;46.10;102183.13;15433966;28;20498;-59
2022/03/09 08:05:09;;;;;;;1999.90;999.90;;;;;;;12.25;43.89;102183.63;15421454;28;20618;-59
2022/03/09 08:12:43;;;;;;;1999.90;999.90;;;;;;;12.78;42.42;102183.13;15378847;28;20484;-61
2022/03/09 08:20:17;;;;;;;1999.90;999.90;;;;;;;14.08;40.23;102187.91;15359079;28;20052;-59
2022/03/09 08:27:58;;;;;;;1999.90;999.90;;;;;;;13.47;40.95;102187.47;15369402;29;20063;-60
2022/03/09 08:35:31;;;;;;;1999.90;999.90;;;;;;;14.75;39.69;102192.53;15371093;29;20427;-57
2022/03/09 08:43:04;;;;;;;1999.90;999.90;;;;;;;14.95;37.20;102186.31;15366798;29;20139;-59
2022/03/09 08:50:36;;;;;;;;;;;;;;;14.68;36.93;102187.38;15414031;28;20526;-60
2022/03/09 08:58:10;;;;;;;1999.90;999.90;;;;;;;15.44;35.12;102187.88;15425252;28;19922;-59
2022/03/09 09:05:43;;;;;;;1999.90;999.90;;;;;;;16.93;33.39;102184.34;15426979;28;20043;-60
2022/03/09 09:13:17;;;;;;;1999.90;999.90;;;;;;;17.68;32.47;102193.72;15423766;28;20078;-61
2022/03/09 09:20:51;;;;;;;1999.90;999.90;;;;;;;16.20;33.93;102201.38;15439289;28;20071;-60
2022/03/09 09:28:24;;;;;;;1999.90;999.90;;;;;;;18.34;31.29;102196.56;15425491;28;20053;-61
2022/03/09 09:35:57;;;;;;;1999.90;999.90;;;;;;;19.20;29.21;102200.25;15422905;28;20047;-59
2022/03/09 09:43:30;;;;;;;1999.90;999.90;;;;;;;19.00;29.64;102199.22;15424111;28;20470;-58
2022/03/09 09:51:03;;;;;;;1999.90;999.90;;;;;;;19.74;29.48;102194.22;15423154;28;20101;-58
2022/03/09 09:58:37;;;;;;;1999.90;999.90;;;;;;;20.60;29.67;102197.41;15421300;28;20046;-60
2022/03/09 10:06:09;;;;;;;1999.90;999.90;;;;;;;20.16;27.75;102191.75;15432637;28;20519;-60
2022/03/09 10:13:43;;;;;;;1999.90;999.90;;;;;;;21.33;25.79;102187.41;15410624;28;20039;-60
2022/03/09 10:21:28;;;;;;;1999.90;999.90;;;;;;;20.41;26.93;102189.56;15369504;28;20507;-59
2022/03/09 10:29:04;;;;;;;1999.90;999.90;;;;;;;21.03;26.00;102187.09;15413899;28;20067;-60
2022/03/09 10:36:37;;;;;;;1999.90;999.90;;;;;;;21.51;25.22;102190.66;15361823;28;20051;-59
2022/03/09 10:44:13;;;;;;;1999.90;999.90;;;;;;;21.59;24.56;102192.47;15360602;28;20053;-60
2022/03/09 10:51:48;;;;;;;1999.90;999.90;;;;;;;23.26;23.67;102180.44;15410194;28;20290;-58
2022/03/09 10:59:24;;;;;;;1999.90;999.90;;;;;;;23.94;22.86;102175.63;15419810;28;20519;-61
2022/03/09 11:07:00;;;;;;;1999.90;999.90;;;;;;;23.36;24.13;102176.13;15418567;28;20039;-60
2022/03/09 11:15:28;;;;;;;1999.90;999.90;;;;;;;22.67;23.94;102170.56;15418791;28;20035;-60
2022/03/09 11:23:01;;;;;;;1999.90;999.90;;;;;;;22.73;23.66;102161.31;15387184;28;20210;-60
2022/03/09 11:30:36;;;;;;;1999.90;999.90;;;;;;;23.58;22.69;102163.78;15358204;28;20055;-60
2022/03/09 11:38:41;;;;;;;1999.90;999.90;;;;;;;24.15;22.85;102162.41;15340979;29;20480;-59
2022/03/09 11:46:13;;;;;;;1999.90;999.90;;;;;;;22.40;23.49;102153.44;15355468;28;20599;-60
2022/03/09 11:53:50;;;;;;;1999.90;999.90;;;;;;;23.13;24.00;102148.50;15358315;28;20078;-60
2022/03/09 12:01:22;;;;;;;1999.90;999.90;;;;;;;23.44;23.09;102149.34;15356811;28;20126;-60
2022/03/09 12:08:56;;;;;;;1999.90;999.90;;;;;;;21.91;23.69;102141.97;15357255;29;20073;-60
2022/03/09 12:16:29;;;;;;;1999.90;999.90;;;;;;;23.17;24.61;102138.00;15339873;29;20429;-59
2022/03/09 12:24:36;;;;;;;1999.90;999.90;;;;;;;24.05;21.71;102136.66;15392851;28;20085;-61
2022/03/09 12:32:11;;;;;;;1999.90;999.90;;;;;;;22.65;22.65;102131.13;15418152;28;20236;-61
2022/03/09 12:39:51;;;;;;;1999.90;999.90;;;;;;;23.30;23.17;102118.66;15416445;28;20099;-60
2022/03/09 12:47:23;;;;;;;1999.90;999.90;;;;;;;24.44;21.44;102122.78;15416693;28;20495;-62
2022/03/09 12:54:58;;;;;;;1999.90;999.90;;;;;;;26.30;19.67;102124.50;15417177;28;20054;-60
2022/03/09 13:02:41;;;;;;;1999.90;999.90;;;;;;;27.09;18.70;102128.94;15416636;28;20050;-62
2022/03/09 13:10:14;;;;;;;1999.90;999.90;;;;;;;28.64;17.62;102116.97;15416554;28;20066;-62
2022/03/09 13:17:51;;;;;;;1999.90;999.90;;;;;;;26.81;19.33;102109.78;15405810;28;20158;-60
2022/03/09 13:25:30;;;;;;;1999.90;999.90;;;;;;;26.65;18.28;102109.38;15403741;28;20067;-62
2022/03/09 13:33:14;;;;;;;1999.90;999.90;;;;;;;29.64;16.37;102109.31;15402805;28;20051;-60
2022/03/09 13:40:48;;;;;;;1999.90;999.90;;;;;;;26.59;17.64;102097.53;15422075;28;20591;-62
2022/03/09 13:48:22;;;;;;;1999.90;999.90;;;;;;;18.05;25.43;102087.38;15422582;28;20070;-60
2022/03/09 13:55:56;;;;;;;1999.90;999.90;;;;;;;18.16;26.15;102090.56;15399354;28;20051;-64
2022/03/09 14:03:28;;;;;;;1999.90;999.90;;;;;;;16.73;28.43;102087.28;15420941;28;20042;-60
2022/03/09 14:11:08;;;;;;;1999.90;999.90;;;;;;;17.45;26.98;102077.56;15428753;28;20053;-60
2022/03/09 14:18:43;;;;;;;1999.90;999.90;;;;;;;17.49;26.26;102080.50;15429097;28;20043;-62
2022/03/09 14:26:17;;;;;;;1999.90;999.90;;;;;;;17.09;27.73;102078.22;15408214;28;20150;-62
2022/03/09 14:33:49;;;;;;;1999.90;999.90;;;;;;;16.49;28.31;102079.44;15423908;28;20456;-61
2022/03/09 14:41:24;;;;;;;1999.90;999.90;;;;;;;16.29;29.69;102075.41;15420340;28;20342;-62
2022/03/09 14:48:56;;;;;;;1999.90;999.90;;;;;;;16.54;29.61;102070.78;15421177;28;20065;-61
2022/03/09 14:56:30;;;;;;;1999.90;999.90;;;;;;;16.45;28.41;102070.84;15419061;28;20172;-63
2022/03/09 15:04:03;;;;;;;1999.90;999.90;;;;;;;16.57;28.67;102060.81;15419561;28;20066;-62
2022/03/09 15:11:38;;;;;;;;;;;;;;;16.68;28.30;102062.94;15402584;28;20058;-62
2022/03/09 15:19:10;;;;;;;1999.90;999.90;;;;;;;15.97;28.58;102065.63;15418130;28;20013;-63
2022/03/09 15:26:43;;;;;;;1999.90;999.90;;;;;;;14.43;30.40;102057.75;15417510;28;20051;-62
2022/03/09 15:34:17;;;;;;;1999.90;999.90;;;;;;;15.00;30.12;102056.84;15418737;28;20046;-62
2022/03/09 15:41:51;;;;;;;1999.90;999.90;;;;;;;15.49;29.92;102063.91;15417739;28;20117;-63
2022/03/09 15:49:24;;;;;;;1999.90;999.90;;;;;;;15.29;30.06;102056.16;15417698;28;20047;-63
2022/03/09 15:56:58;;;;;;;1999.90;999.90;;;;;;;14.55;30.46;102059.94;15414752;28;20050;-62
2022/03/09 16:04:33;;;;;;;1999.90;999.90;;;;;;;14.79;30.82;102064.25;15426322;28;20035;-59
2022/03/09 16:12:08;;;;;;;1999.90;999.90;;;;;;;14.62;31.63;102077.16;15386818;28;20051;-61
2022/03/09 16:19:40;;;;;;;1999.90;999.90;;;;;;;14.62;31.94;102079.13;15416965;28;20046;-62
2022/03/09 16:27:13;;;;;;;1999.90;999.90;;;;;;;14.71;30.23;102074.34;15414563;28;20047;-62
2022/03/09 16:34:45;;;;;;;1999.90;999.90;;;;;;;14.00;32.63;102085.66;15416684;28;20424;-63
2022/03/09 16:42:19;;;;;;;1999.90;999.90;;;;;;;14.24;31.22;102082.47;15406588;28;20039;-63
2022/03/09 16:49:51;;;;;;;;;;;;;;;14.13;32.78;102087.53;15428991;28;20046;-62
2022/03/09 16:57:24;;;;;;;1999.90;999.90;;;;;;;13.61;34.30;102094.03;15426872;28;19938;-62
2022/03/09 17:04:57;;;;;;;1999.90;999.90;;;;;;;13.00;35.20;102087.94;15425301;28;20130;-63
2022/03/09 17:12:30;;;;;;;1999.90;999.90;;;;;;;12.50;37.01;102104.72;15424982;28;20047;-64
2022/03/09 17:20:04;;;;;;;1999.90;999.90;;;;;;;12.01;37.74;102114.69;15423926;28;20061;-63
2022/03/09 17:27:38;;;;;;;1999.90;999.90;;;;;;;11.77;37.93;102128.78;15424565;28;20053;-62
2022/03/09 17:35:13;;;;;;;1999.90;999.90;;;;;;;11.30;39.87;102123.47;15426844;28;20039;-63
2022/03/09 17:42:46;;;;;;;1999.90;999.90;;;;;;;10.82;40.95;102129.19;15421329;28;20042;-63
2022/03/09 17:50:19;;;;;;;1999.90;999.90;;;;;;;10.64;41.91;102136.44;15422729;28;20638;-63
2022/03/09 17:57:54;;;;;;;1999.90;999.90;;;;;;;10.41;41.71;102146.47;15418033;28;20402;-62
2022/03/09 18:05:26;;;;;;;1999.90;999.90;;;;;;;9.81;43.33;102144.03;15422319;28;20051;-61
2022/03/09 18:13:00;;;;;;;1999.90;999.90;;;;;;;9.62;41.77;102156.19;15422203;28;20085;-60
2022/03/09 18:20:32;;;;;;;1999.90;999.90;;;;;;;9.20;42.86;102163.22;15425300;28;20472;-59
2022/03/09 18:28:07;;;;;;;1999.90;999.90;;;;;;;9.47;42.56;102166.31;15414495;28;20038;-62
2022/03/09 18:35:40;;;;;;;1999.90;999.90;;;;;;;9.43;42.81;102179.19;15418722;28;20039;-62
2022/03/09 18:43:14;;;;;;;1999.90;999.90;;;;;;;9.23;43.86;102182.13;15420240;28;20047;-62
2022/03/09 18:50:46;;;;;;;1999.90;999.90;;;;;;;8.93;44.38;102188.69;15420694;28;20058;-61
2022/03/09 18:58:20;;;;;;;1999.90;999.90;;;;;;;8.76;45.50;102193.81;15402238;28;20133;-62
2022/03/09 19:05:52;;;;;;;1999.90;999.90;;;;;;;8.82;45.08;102201.00;15414422;28;20480;-61
2022/03/09 19:13:26;;;;;;;1999.90;999.90;;;;;;;8.70;45.75;102203.28;15414322;28;20437;-62
2022/03/09 19:20:59;;;;;;;1999.90;999.90;;;;;;;8.37;45.82;102208.41;15377957;28;20050;-62
2022/03/09 19:28:32;;;;;;;1999.90;999.90;;;;;;;8.48;44.92;102210.03;15399224;28;20145;-60
2022/03/09 19:36:05;;;;;;;1999.90;999.90;;;;;;;8.55;44.90;102209.75;15390041;28;20483;-61
2022/03/09 19:43:39;;;;;;;1999.90;999.90;;;;;;;8.64;44.95;102224.72;15400704;28;20043;-61
2022/03/09 19:51:11;;;;;;;1999.90;999.90;;;;;;;8.34;45.63;102223.72;15413148;28;20456;-62
2022/03/09 19:58:44;;;;;;;1999.90;999.90;;;;;;;8.29;45.52;102226.47;15372945;28;20396;-61
2022/03/09 20:06:16;;;;;;;1999.90;999.90;;;;;;;8.07;46.17;102226.78;15428982;28;20039;-59
2022/03/09 20:13:50;;;;;;;1999.90;999.90;;;;;;;7.81;47.06;102230.66;15413707;28;20058;-60
2022/03/09 20:21:22;;;;;;;1999.90;999.90;;;;;;;7.72;46.99;102235.97;15405915;28;20043;-61
2022/03/09 20:28:55;;;;;;;1999.90;999.90;;;;;;;7.54;47.75;102242.06;15414614;28;20046;-61
2022/03/09 20:36:28;;;;;;;1999.90;999.90;;;;;;;7.22;47.98;102256.16;15424108;28;20113;-60
2022/03/09 20:44:01;;;;;;;1999.90;999.90;;;;;;;6.97;48.82;102264.38;15420209;28;20054;-60
2022/03/09 20:51:34;;;;;;;1999.90;999.90;;;;;;;6.68;49.37;102264.81;15439177;28;20274;-61
2022/03/09 20:59:08;;;;;;;1999.90;999.90;;;;;;;6.54;49.88;102277.47;15423992;28;20051;-61
2022/03/09 21:06:42;;;;;;;1999.90;999.90;;;;;;;6.27;51.33;102285.91;15425024;28;20113;-60
2022/03/09 21:14:16;;;;;;;1999.90;999.90;;;;;;;6.09;51.75;102287.16;15419511;28;20062;-60
2022/03/09 21:21:48;;;;;;;1999.90;999.90;;;;;;;5.92;50.88;102289.22;15420369;28;20047;-61
2022/03/09 21:29:22;;;;;;;1999.90;999.90;;;;;;;5.76;51.19;102291.81;15406418;28;20062;-59
2022/03/09 21:36:55;;;;;;;1999.90;999.90;;;;;;;5.62;51.68;102301.63;15422999;28;20312;-61
2022/03/09 21:44:28;;;;;;;1999.90;999.90;;;;;;;5.51;52.05;102305.41;15421826;28;20093;-63
2022/03/09 21:52:00;;;;;;;1999.90;999.90;;;;;;;5.46;52.21;102305.34;15421261;28;20059;-62
2022/03/09 21:59:35;;;;;;;1999.90;999.90;;;;;;;5.53;51.81;102322.59;15420974;28;20421;-61
2022/03/09 22:07:07;;;;;;;1999.90;999.90;;;;;;;5.49;52.00;102321.44;15420700;28;20058;-60
2022/03/09 22:14:40;;;;;;;1999.90;999.90;;;;;;;5.44;52.45;102311.16;15419192;28;20055;-61
2022/03/09 22:22:15;;;;;;;1999.90;999.90;;;;;;;5.34;52.45;102326.81;15418835;28;20393;-61
2022/03/09 22:29:48;;;;;;;1999.90;999.90;;;;;;;5.18;52.74;102321.06;15420481;28;20408;-61
2022/03/09 22:37:20;;;;;;;1999.90;999.90;;;;;;;4.93;52.85;102326.28;15419184;28;20039;-59
2022/03/09 22:44:54;;;;;;;1999.90;999.90;;;;;;;4.87;53.11;102327.31;15416123;28;20381;-61
2022/03/09 22:52:26;;;;;;;1999.90;999.90;;;;;;;4.64;53.83;102318.16;15432685;28;20103;-61
2022/03/09 23:00:00;;;;;;;1999.90;999.90;;;;;;;4.43;54.68;102324.47;15414587;28;20393;-62
2022/03/09 23:07:32;;;;;;;1999.90;999.90;;;;;;;4.32;55.06;102320.72;15417488;28;20051;-60
2022/03/09 23:15:07;;;;;;;1999.90;999.90;;;;;;;4.10;55.94;102313.44;15411136;28;20051;-60
2022/03/09 23:22:47;;;;;;;1999.90;999.90;;;;;;;3.97;56.22;102309.91;15412972;28;20038;-61
2022/03/09 23:30:21;;;;;;;1999.90;999.90;;;;;;;3.87;56.74;102323.56;15391225;28;20047;-62
2022/03/09 23:37:53;;;;;;;1999.90;999.90;;;;;;;3.77;57.00;102339.94;15382317;28;20162;-62
2022/03/09 23:45:27;;;;;;;1999.90;999.90;;;;;;;3.58;57.59;102332.94;15398392;28;20507;-60
2022/03/09 23:53:01;;;;;;;1999.90;999.90;;;;;;;3.60;57.52;102355.63;15414994;28;20472;-61
